sensor_id;sensor_type;location;lat;lon;timestamp;pressure;altitude;pressure_sealevel;temperature;humidity
74675;BME280;63200;48.810;12.352;2023-08-17T00:01:52;97601.50;;;18.03;100.00
74675;BME280;63200;48.810;12.352;2023-08-17T00:04:17;97605.56;;;17.97;100.00
74675;BME280;63200;48.810;12.352;2023-08-17T00:06:43;97610.25;;;17.96;100.00
74675;BME280;63200;48.810;12.352;2023-08-17T00:09:09;97547.84;;;17.67;100.00
74675;BME280;63200;48.810;12.352;2023-08-17T00:11:35;97596.22;;;17.98;100.00
74675;BME280;63200;48.810;12.352;2023-08-17T00:14:01;97602.50;;;17.98;100.00
74675;BME280;63200;48.810;12.352;2023-08-17T00:16:26;97600.53;;;17.99;100.00
74675;BME280;63200;48.810;12.352;2023-08-17T00:18:51;97593.47;;;17.98;100.00
74675;BME280;63200;48.810;12.352;2023-08-17T00:21:17;97597.66;;;17.95;100.00
74675;BME280;63200;48.810;12.352;2023-08-17T00:23:43;97600.56;;;17.90;100.00
74675;BME280;63200;48.810;12.352;2023-08-17T00:26:08;97589.91;;;17.89;100.00
74675;BME280;63200;48.810;12.352;2023-08-17T00:28:34;97598.16;;;17.89;100.00
74675;BME280;63200;48.810;12.352;2023-08-17T00:31:00;97531.94;;;17.52;100.00
74675;BME280;63200;48.810;12.352;2023-08-17T00:33:25;97599.94;;;17.85;100.00
74675;BME280;63200;48.810;12.352;2023-08-17T00:35:51;97578.97;;;17.80;100.00
74675;BME280;63200;48.810;12.352;2023-08-17T00:38:16;97587.88;;;17.77;100.00
74675;BME280;63200;48.810;12.352;2023-08-17T00:40:41;97578.53;;;17.69;100.00
74675;BME280;63200;48.810;12.352;2023-08-17T00:43:07;97587.59;;;17.61;100.00
74675;BME280;63200;48.810;12.352;2023-08-17T00:45:32;97580.06;;;17.49;100.00
74675;BME280;63200;48.810;12.352;2023-08-17T00:47:58;97570.53;;;17.38;100.00
74675;BME280;63200;48.810;12.352;2023-08-17T00:50:24;97568.47;;;17.35;100.00
74675;BME280;63200;48.810;12.352;2023-08-17T00:52:51;97566.84;;;17.34;100.00
74675;BME280;63200;48.810;12.352;2023-08-17T00:55:18;97571.84;;;17.31;100.00
74675;BME280;63200;48.810;12.352;2023-08-17T00:57:43;97567.19;;;17.32;100.00
74675;BME280;63200;48.810;12.352;2023-08-17T01:00:11;97567.00;;;17.37;100.00
74675;BME280;63200;48.810;12.352;2023-08-17T01:02:37;97570.84;;;17.45;100.00
74675;BME280;63200;48.810;12.352;2023-08-17T01:05:03;97574.56;;;17.49;100.00
74675;BME280;63200;48.810;12.352;2023-08-17T01:07:31;97569.97;;;17.62;100.00
74675;BME280;63200;48.810;12.352;2023-08-17T01:09:56;97526.91;;;17.45;100.00
74675;BME280;63200;48.810;12.352;2023-08-17T01:12:27;97571.50;;;17.80;100.00
74675;BME280;63200;48.810;12.352;2023-08-17T01:15:18;97569.41;;;17.86;100.00
74675;BME280;63200;48.810;12.352;2023-08-17T01:17:54;97546.03;;;17.71;100.00
74675;BME280;63200;48.810;12.352;2023-08-17T01:20:22;97534.28;;;17.62;100.00
74675;BME280;63200;48.810;12.352;2023-08-17T01:22:51;97561.09;;;17.65;100.00
74675;BME280;63200;48.810;12.352;2023-08-17T01:25:17;97543.13;;;17.29;100.00
74675;BME280;63200;48.810;12.352;2023-08-17T01:27:44;97558.28;;;17.35;100.00
74675;BME280;63200;48.810;12.352;2023-08-17T01:30:16;97560.53;;;17.42;100.00
74675;BME280;63200;48.810;12.352;2023-08-17T01:32:48;97559.69;;;17.50;100.00
74675;BME280;63200;48.810;12.352;2023-08-17T01:35:30;97558.88;;;17.58;100.00
74675;BME280;63200;48.810;12.352;2023-08-17T01:38:00;97554.16;;;17.68;100.00
74675;BME280;63200;48.810;12.352;2023-08-17T01:40:31;97511.13;;;17.42;100.00
74675;BME280;63200;48.810;12.352;2023-08-17T01:42:58;97533.75;;;17.77;100.00
74675;BME280;63200;48.810;12.352;2023-08-17T01:45:24;97537.31;;;18.08;100.00
74675;BME280;63200;48.810;12.352;2023-08-17T01:47:50;97494.78;;;17.93;100.00
74675;BME280;63200;48.810;12.352;2023-08-17T01:50:15;97543.78;;;18.33;100.00
74675;BME280;63200;48.810;12.352;2023-08-17T01:52:41;97547.34;;;18.34;100.00
74675;BME280;63200;48.810;12.352;2023-08-17T01:55:06;97549.81;;;18.26;100.00
74675;BME280;63200;48.810;12.352;2023-08-17T01:57:32;97551.28;;;18.24;100.00
74675;BME280;63200;48.810;12.352;2023-08-17T01:59:57;97541.31;;;18.19;100.00
74675;BME280;63200;48.810;12.352;2023-08-17T02:02:22;97546.16;;;18.13;100.00
74675;BME280;63200;48.810;12.352;2023-08-17T02:04:48;97541.34;;;18.10;100.00
74675;BME280;63200;48.810;12.352;2023-08-17T02:07:13;97548.50;;;18.03;100.00
74675;BME280;63200;48.810;12.352;2023-08-17T02:09:39;97545.94;;;17.97;100.00
74675;BME280;63200;48.810;12.352;2023-08-17T02:12:04;97542.75;;;17.95;100.00
74675;BME280;63200;48.810;12.352;2023-08-17T02:14:30;97547.75;;;17.93;100.00
74675;BME280;63200;48.810;12.352;2023-08-17T02:16:55;97541.75;;;17.91;100.00
74675;BME280;63200;48.810;12.352;2023-08-17T02:19:20;97542.56;;;17.92;100.00
74675;BME280;63200;48.810;12.352;2023-08-17T02:21:46;97542.88;;;17.90;100.00
74675;BME280;63200;48.810;12.352;2023-08-17T02:24:11;97540.28;;;17.94;100.00
74675;BME280;63200;48.810;12.352;2023-08-17T02:26:36;97538.72;;;17.93;100.00
74675;BME280;63200;48.810;12.352;2023-08-17T02:29:03;97538.72;;;17.93;100.00
74675;BME280;63200;48.810;12.352;2023-08-17T02:31:29;97544.19;;;17.93;100.00
74675;BME280;63200;48.810;12.352;2023-08-17T02:33:54;97551.28;;;17.94;100.00
74675;BME280;63200;48.810;12.352;2023-08-17T02:36:23;97550.00;;;17.91;100.00
74675;BME280;63200;48.810;12.352;2023-08-17T02:38:48;97545.97;;;17.89;100.00
74675;BME280;63200;48.810;12.352;2023-08-17T02:41:14;97545.00;;;17.85;100.00
74675;BME280;63200;48.810;12.352;2023-08-17T02:43:39;97554.56;;;17.78;100.00
74675;BME280;63200;48.810;12.352;2023-08-17T02:46:04;97549.94;;;17.70;100.00
74675;BME280;63200;48.810;12.352;2023-08-17T02:48:33;97559.31;;;17.69;100.00
74675;BME280;63200;48.810;12.352;2023-08-17T02:50:58;97560.44;;;17.68;100.00
74675;BME280;63200;48.810;12.352;2023-08-17T02:53:23;97570.13;;;17.65;100.00
74675;BME280;63200;48.810;12.352;2023-08-17T02:55:48;97562.22;;;17.64;100.00
74675;BME280;63200;48.810;12.352;2023-08-17T02:58:14;97547.13;;;17.49;100.00
74675;BME280;63200;48.810;12.352;2023-08-17T03:00:39;97570.78;;;17.62;100.00
74675;BME280;63200;48.810;12.352;2023-08-17T03:03:04;97570.16;;;17.57;100.00
74675;BME280;63200;48.810;12.352;2023-08-17T03:05:30;97574.34;;;17.54;100.00
74675;BME280;63200;48.810;12.352;2023-08-17T03:07:55;97572.28;;;17.51;100.00
74675;BME280;63200;48.810;12.352;2023-08-17T03:10:21;97574.88;;;17.47;100.00
74675;BME280;63200;48.810;12.352;2023-08-17T03:12:46;97570.84;;;17.45;100.00
74675;BME280;63200;48.810;12.352;2023-08-17T03:15:11;97558.91;;;17.41;100.00
74675;BME280;63200;48.810;12.352;2023-08-17T03:17:37;97561.19;;;17.39;100.00
74675;BME280;63200;48.810;12.352;2023-08-17T03:20:02;97562.16;;;17.34;100.00
74675;BME280;63200;48.810;12.352;2023-08-17T03:22:30;97556.03;;;17.37;100.00
74675;BME280;63200;48.810;12.352;2023-08-17T03:24:55;97522.84;;;17.12;100.00
74675;BME280;63200;48.810;12.352;2023-08-17T03:27:20;97545.41;;;17.27;100.00
74675;BME280;63200;48.810;12.352;2023-08-17T03:29:46;97544.78;;;17.21;100.00
74675;BME280;63200;48.810;12.352;2023-08-17T03:32:11;97547.69;;;17.16;100.00
74675;BME280;63200;48.810;12.352;2023-08-17T03:34:36;97548.19;;;17.09;100.00
74675;BME280;63200;48.810;12.352;2023-08-17T03:37:03;97523.34;;;16.88;100.00
74675;BME280;63200;48.810;12.352;2023-08-17T03:39:28;97547.06;;;17.02;100.00
74675;BME280;63200;48.810;12.352;2023-08-17T03:41:54;97549.47;;;16.94;100.00
74675;BME280;63200;48.810;12.352;2023-08-17T03:44:19;97552.69;;;16.88;100.00
74675;BME280;63200;48.810;12.352;2023-08-17T03:46:44;97559.28;;;16.87;100.00
74675;BME280;63200;48.810;12.352;2023-08-17T03:49:09;97554.47;;;16.83;100.00
74675;BME280;63200;48.810;12.352;2023-08-17T03:51:35;97559.94;;;16.83;100.00
74675;BME280;63200;48.810;12.352;2023-08-17T03:54:00;97559.63;;;16.85;100.00
74675;BME280;63200;48.810;12.352;2023-08-17T03:56:25;97567.50;;;16.87;100.00
74675;BME280;63200;48.810;12.352;2023-08-17T03:58:53;97573.81;;;16.87;100.00
74675;BME280;63200;48.810;12.352;2023-08-17T04:01:18;97561.91;;;16.83;100.00
74675;BME280;63200;48.810;12.352;2023-08-17T04:03:44;97568.34;;;16.78;100.00
74675;BME280;63200;48.810;12.352;2023-08-17T04:06:09;97574.47;;;16.75;100.00
74675;BME280;63200;48.810;12.352;2023-08-17T04:08:38;97573.19;;;16.73;100.00
74675;BME280;63200;48.810;12.352;2023-08-17T04:11:04;97571.09;;;16.70;100.00
74675;BME280;63200;48.810;12.352;2023-08-17T04:13:31;97573.50;;;16.62;100.00
74675;BME280;63200;48.810;12.352;2023-08-17T04:15:56;97570.75;;;16.54;100.00
74675;BME280;63200;48.810;12.352;2023-08-17T04:18:21;97579.94;;;16.49;100.00
74675;BME280;63200;48.810;12.352;2023-08-17T04:20:47;97576.69;;;16.47;100.00
74675;BME280;63200;48.810;12.352;2023-08-17T04:23:12;97577.69;;;16.51;100.00
74675;BME280;63200;48.810;12.352;2023-08-17T04:25:37;97577.84;;;16.55;100.00
74675;BME280;63200;48.810;12.352;2023-08-17T04:28:03;97568.97;;;16.66;100.00
74675;BME280;63200;48.810;12.352;2023-08-17T04:30:29;97578.34;;;16.74;100.00
74675;BME280;63200;48.810;12.352;2023-08-17T04:32:54;97575.75;;;16.78;100.00
74675;BME280;63200;48.810;12.352;2023-08-17T04:35:20;97540.28;;;16.55;100.00
74675;BME280;63200;48.810;12.352;2023-08-17T04:37:45;97582.84;;;16.88;100.00
74675;BME280;63200;48.810;12.352;2023-08-17T04:40:12;97596.91;;;16.95;100.00
74675;BME280;63200;48.810;12.352;2023-08-17T04:42:37;97602.69;;;16.93;100.00
74675;BME280;63200;48.810;12.352;2023-08-17T04:45:03;97604.31;;;16.94;100.00
74675;BME280;63200;48.810;12.352;2023-08-17T04:47:28;97598.50;;;16.96;100.00
74675;BME280;63200;48.810;12.352;2023-08-17T04:49:54;97601.59;;;17.12;100.00
74675;BME280;63200;48.810;12.352;2023-08-17T04:52:19;97606.88;;;17.17;100.00
74675;BME280;63200;48.810;12.352;2023-08-17T04:54:44;97610.28;;;17.23;100.00
74675;BME280;63200;48.810;12.352;2023-08-17T04:57:09;97614.00;;;17.27;100.00
74675;BME280;63200;48.810;12.352;2023-08-17T04:59:35;97591.72;;;17.20;100.00
74675;BME280;63200;48.810;12.352;2023-08-17T05:02:01;97615.75;;;17.40;100.00
74675;BME280;63200;48.810;12.352;2023-08-17T05:04:26;97622.69;;;17.46;100.00
74675;BME280;63200;48.810;12.352;2023-08-17T05:06:51;97612.31;;;17.52;100.00
74675;BME280;63200;48.810;12.352;2023-08-17T05:09:17;97605.53;;;17.58;100.00
74675;BME280;63200;48.810;12.352;2023-08-17T05:11:42;97604.53;;;17.63;100.00
74675;BME280;63200;48.810;12.352;2023-08-17T05:14:07;97596.13;;;17.68;100.00
74675;BME280;63200;48.810;12.352;2023-08-17T05:16:33;97596.41;;;17.75;100.00
74675;BME280;63200;48.810;12.352;2023-08-17T05:18:58;97594.75;;;17.83;100.00
74675;BME280;63200;48.810;12.352;2023-08-17T05:21:25;97562.66;;;17.75;100.00
74675;BME280;63200;48.810;12.352;2023-08-17T05:23:50;97597.44;;;18.09;100.00
74675;BME280;63200;48.810;12.352;2023-08-17T05:26:15;97608.06;;;18.20;100.00
74675;BME280;63200;48.810;12.352;2023-08-17T05:28:41;97608.13;;;18.32;100.00
74675;BME280;63200;48.810;12.352;2023-08-17T05:31:08;97618.91;;;18.46;100.00
74675;BME280;63200;48.810;12.352;2023-08-17T05:33:33;97623.66;;;18.58;100.00
74675;BME280;63200;48.810;12.352;2023-08-17T05:35:59;97622.59;;;18.71;100.00
74675;BME280;63200;48.810;12.352;2023-08-17T05:38:25;97612.88;;;18.74;100.00
74675;BME280;63200;48.810;12.352;2023-08-17T05:40:57;97582.03;;;18.68;100.00
74675;BME280;63200;48.810;12.352;2023-08-17T05:43:23;97630.06;;;19.13;100.00
74675;BME280;63200;48.810;12.352;2023-08-17T05:45:49;97619.56;;;19.27;100.00
74675;BME280;63200;48.810;12.352;2023-08-17T05:48:14;97624.94;;;19.45;100.00
74675;BME280;63200;48.810;12.352;2023-08-17T05:50:43;97628.28;;;19.63;100.00
74675;BME280;63200;48.810;12.352;2023-08-17T05:53:08;97590.41;;;19.60;100.00
74675;BME280;63200;48.810;12.352;2023-08-17T05:55:34;97619.88;;;19.93;100.00
74675;BME280;63200;48.810;12.352;2023-08-17T05:57:59;97620.13;;;20.12;100.00
74675;BME280;63200;48.810;12.352;2023-08-17T06:00:24;97605.41;;;20.33;100.00
74675;BME280;63200;48.810;12.352;2023-08-17T06:02:50;97580.16;;;20.31;100.00
74675;BME280;63200;48.810;12.352;2023-08-17T06:05:17;97607.00;;;20.59;100.00
74675;BME280;63200;48.810;12.352;2023-08-17T06:07:42;97609.16;;;20.78;100.00
74675;BME280;63200;48.810;12.352;2023-08-17T06:10:08;97617.25;;;20.99;100.00
74675;BME280;63200;48.810;12.352;2023-08-17T06:12:34;97617.44;;;21.19;100.00
74675;BME280;63200;48.810;12.352;2023-08-17T06:15:01;97614.81;;;21.38;100.00
74675;BME280;63200;48.810;12.352;2023-08-17T06:17:26;97617.75;;;21.58;100.00
74675;BME280;63200;48.810;12.352;2023-08-17T06:19:52;97612.75;;;21.79;100.00
74675;BME280;63200;48.810;12.352;2023-08-17T06:22:17;97612.50;;;22.01;100.00
74675;BME280;63200;48.810;12.352;2023-08-17T06:24:42;97613.00;;;22.22;100.00
74675;BME280;63200;48.810;12.352;2023-08-17T06:27:08;97617.59;;;22.30;100.00
74675;BME280;63200;48.810;12.352;2023-08-17T06:29:33;97616.41;;;22.32;100.00
74675;BME280;63200;48.810;12.352;2023-08-17T06:31:58;97621.22;;;22.35;100.00
74675;BME280;63200;48.810;12.352;2023-08-17T06:34:23;97622.19;;;22.42;100.00
74675;BME280;63200;48.810;12.352;2023-08-17T06:36:59;97618.81;;;22.49;100.00
74675;BME280;63200;48.810;12.352;2023-08-17T06:39:25;97622.03;;;22.51;100.00
74675;BME280;63200;48.810;12.352;2023-08-17T06:41:50;97602.56;;;22.32;100.00
74675;BME280;63200;48.810;12.352;2023-08-17T06:44:16;97619.00;;;22.40;100.00
74675;BME280;63200;48.810;12.352;2023-08-17T06:46:41;97614.81;;;22.46;100.00
74675;BME280;63200;48.810;12.352;2023-08-17T06:49:06;97618.06;;;22.68;100.00
74675;BME280;63200;48.810;12.352;2023-08-17T06:51:33;97620.03;;;22.87;100.00
74675;BME280;63200;48.810;12.352;2023-08-17T06:53:59;97593.34;;;23.15;100.00
74675;BME280;63200;48.810;12.352;2023-08-17T06:56:25;97619.50;;;23.79;100.00
74675;BME280;63200;48.810;12.352;2023-08-17T06:58:50;97615.63;;;24.07;100.00
74675;BME280;63200;48.810;12.352;2023-08-17T07:01:16;97626.06;;;24.41;100.00
74675;BME280;63200;48.810;12.352;2023-08-17T07:03:41;97624.44;;;24.63;100.00
74675;BME280;63200;48.810;12.352;2023-08-17T07:06:08;97634.75;;;24.63;95.73
74675;BME280;63200;48.810;12.352;2023-08-17T07:08:33;97636.91;;;24.76;93.64
74675;BME280;63200;48.810;12.352;2023-08-17T07:10:58;97632.97;;;24.77;96.19
74675;BME280;63200;48.810;12.352;2023-08-17T07:13:24;97639.16;;;24.94;92.00
74675;BME280;63200;48.810;12.352;2023-08-17T07:15:49;97629.34;;;25.04;87.45
74675;BME280;63200;48.810;12.352;2023-08-17T07:18:14;97635.63;;;24.97;88.51
74675;BME280;63200;48.810;12.352;2023-08-17T07:20:40;97637.78;;;25.11;87.99
74675;BME280;63200;48.810;12.352;2023-08-17T07:23:05;97620.97;;;25.00;83.91
74675;BME280;63200;48.810;12.352;2023-08-17T07:25:31;97601.72;;;24.84;82.38
74675;BME280;63200;48.810;12.352;2023-08-17T07:27:56;97641.88;;;25.21;83.41
74675;BME280;63200;48.810;12.352;2023-08-17T07:30:21;97605.25;;;25.11;80.52
74675;BME280;63200;48.810;12.352;2023-08-17T07:32:47;97644.88;;;25.35;79.03
74675;BME280;63200;48.810;12.352;2023-08-17T07:35:12;97644.19;;;25.46;83.23
74675;BME280;63200;48.810;12.352;2023-08-17T07:37:37;97646.91;;;25.76;79.90
74675;BME280;63200;48.810;12.352;2023-08-17T07:40:03;97648.22;;;25.93;78.60
74675;BME280;63200;48.810;12.352;2023-08-17T07:42:28;97645.09;;;26.39;77.03
74675;BME280;63200;48.810;12.352;2023-08-17T07:44:54;97648.78;;;26.54;76.48
74675;BME280;63200;48.810;12.352;2023-08-17T07:47:19;97641.88;;;26.93;74.23
74675;BME280;63200;48.810;12.352;2023-08-17T07:49:44;97618.03;;;27.03;74.71
74675;BME280;63200;48.810;12.352;2023-08-17T07:52:10;97654.47;;;27.39;71.94
74675;BME280;63200;48.810;12.352;2023-08-17T07:54:35;97630.50;;;27.27;69.29
74675;BME280;63200;48.810;12.352;2023-08-17T07:57:00;97648.94;;;27.50;68.53
74675;BME280;63200;48.810;12.352;2023-08-17T07:59:28;97664.84;;;27.49;66.09
74675;BME280;63200;48.810;12.352;2023-08-17T08:01:53;97652.38;;;27.25;66.38
74675;BME280;63200;48.810;12.352;2023-08-17T08:04:18;97645.28;;;27.35;69.64
74675;BME280;63200;48.810;12.352;2023-08-17T08:06:44;97651.34;;;27.55;64.81
74675;BME280;63200;48.810;12.352;2023-08-17T08:09:09;97642.94;;;27.48;65.03
74675;BME280;63200;48.810;12.352;2023-08-17T08:11:34;97598.66;;;27.28;63.89
74675;BME280;63200;48.810;12.352;2023-08-17T08:14:00;97629.09;;;27.84;67.89
74675;BME280;63200;48.810;12.352;2023-08-17T08:16:26;97645.06;;;28.08;62.71
74675;BME280;63200;48.810;12.352;2023-08-17T08:18:51;97635.13;;;28.15;59.63
74675;BME280;63200;48.810;12.352;2023-08-17T08:21:17;97644.28;;;28.33;61.26
74675;BME280;63200;48.810;12.352;2023-08-17T08:23:42;97638.28;;;28.60;63.06
74675;BME280;63200;48.810;12.352;2023-08-17T08:26:07;97631.50;;;28.79;61.32
74675;BME280;63200;48.810;12.352;2023-08-17T08:28:33;97631.44;;;29.01;60.81
74675;BME280;63200;48.810;12.352;2023-08-17T08:31:02;97629.63;;;29.54;58.13
74675;BME280;63200;48.810;12.352;2023-08-17T08:33:28;97635.91;;;29.72;57.16
74675;BME280;63200;48.810;12.352;2023-08-17T08:35:53;97637.59;;;29.59;57.27
74675;BME280;63200;48.810;12.352;2023-08-17T08:38:19;97637.56;;;29.66;54.64
74675;BME280;63200;48.810;12.352;2023-08-17T08:40:47;97640.22;;;29.91;56.00
74675;BME280;63200;48.810;12.352;2023-08-17T08:43:12;97640.16;;;29.99;55.95
74675;BME280;63200;48.810;12.352;2023-08-17T08:45:38;97637.44;;;29.84;54.25
74675;BME280;63200;48.810;12.352;2023-08-17T08:48:08;97638.72;;;29.69;54.99
74675;BME280;63200;48.810;12.352;2023-08-17T08:50:35;97626.59;;;29.97;54.98
74675;BME280;63200;48.810;12.352;2023-08-17T08:53:02;97623.63;;;30.19;54.25
74675;BME280;63200;48.810;12.352;2023-08-17T08:55:34;97621.41;;;30.45;53.95
74675;BME280;63200;48.810;12.352;2023-08-17T08:58:00;97625.19;;;30.23;53.33
74675;BME280;63200;48.810;12.352;2023-08-17T09:00:26;97624.63;;;30.43;54.02
74675;BME280;63200;48.810;12.352;2023-08-17T09:02:52;97625.38;;;29.98;53.50
74675;BME280;63200;48.810;12.352;2023-08-17T09:05:18;97629.22;;;30.19;53.23
74675;BME280;63200;48.810;12.352;2023-08-17T09:07:44;97622.94;;;30.56;53.98
74675;BME280;63200;48.810;12.352;2023-08-17T09:10:10;97617.78;;;30.44;51.58
74675;BME280;63200;48.810;12.352;2023-08-17T09:12:36;97632.88;;;30.08;52.87
74675;BME280;63200;48.810;12.352;2023-08-17T09:15:01;97629.94;;;30.27;54.48
74675;BME280;63200;48.810;12.352;2023-08-17T09:17:27;97624.19;;;30.45;53.04
74675;BME280;63200;48.810;12.352;2023-08-17T09:19:53;97624.56;;;30.50;52.37
74675;BME280;63200;48.810;12.352;2023-08-17T09:22:36;97620.91;;;30.57;54.28
74675;BME280;63200;48.810;12.352;2023-08-17T09:25:02;97589.25;;;30.60;53.43
74675;BME280;63200;48.810;12.352;2023-08-17T09:27:28;97609.16;;;31.07;52.88
74675;BME280;63200;48.810;12.352;2023-08-17T09:30:09;97572.09;;;30.93;50.62
74675;BME280;63200;48.810;12.352;2023-08-17T09:32:35;97587.91;;;31.10;51.60
74675;BME280;63200;48.810;12.352;2023-08-17T09:35:02;97602.50;;;31.60;51.61
74675;BME280;63200;48.810;12.352;2023-08-17T09:37:28;97609.69;;;31.61;50.06
74675;BME280;63200;48.810;12.352;2023-08-17T09:39:54;97609.66;;;31.64;49.35
74675;BME280;63200;48.810;12.352;2023-08-17T09:42:20;97607.41;;;31.52;50.64
74675;BME280;63200;48.810;12.352;2023-08-17T09:44:48;97603.25;;;32.15;49.33
74675;BME280;63200;48.810;12.352;2023-08-17T09:47:13;97593.75;;;32.09;48.72
74675;BME280;63200;48.810;12.352;2023-08-17T09:49:39;97600.28;;;32.49;48.69
74675;BME280;63200;48.810;12.352;2023-08-17T09:52:04;97583.38;;;32.53;48.19
74675;BME280;63200;48.810;12.352;2023-08-17T09:54:31;97599.69;;;32.38;46.41
74675;BME280;63200;48.810;12.352;2023-08-17T09:57:00;97574.19;;;32.01;47.69
74675;BME280;63200;48.810;12.352;2023-08-17T09:59:26;97604.13;;;32.83;47.83
74675;BME280;63200;48.810;12.352;2023-08-17T10:01:52;97600.94;;;33.01;46.74
74675;BME280;63200;48.810;12.352;2023-08-17T10:04:21;97573.41;;;32.92;46.84
74675;BME280;63200;48.810;12.352;2023-08-17T10:06:52;97590.13;;;32.99;45.80
74675;BME280;63200;48.810;12.352;2023-08-17T10:09:24;97595.66;;;33.23;45.56
74675;BME280;63200;48.810;12.352;2023-08-17T10:11:52;97577.81;;;33.13;45.42
74675;BME280;63200;48.810;12.352;2023-08-17T10:14:23;97589.31;;;33.39;45.00
74675;BME280;63200;48.810;12.352;2023-08-17T10:16:55;97592.34;;;33.48;46.31
74675;BME280;63200;48.810;12.352;2023-08-17T10:21:50;97588.38;;;33.82;44.03
74675;BME280;63200;48.810;12.352;2023-08-17T10:24:19;97572.53;;;34.05;43.87
74675;BME280;63200;48.810;12.352;2023-08-17T10:26:45;97580.47;;;34.10;43.95
74675;BME280;63200;48.810;12.352;2023-08-17T10:29:11;97586.44;;;34.29;45.04
74675;BME280;63200;48.810;12.352;2023-08-17T10:31:37;97587.25;;;34.92;43.59
74675;BME280;63200;48.810;12.352;2023-08-17T10:34:04;97589.88;;;35.12;43.46
74675;BME280;63200;48.810;12.352;2023-08-17T10:36:30;97589.75;;;34.73;41.76
74675;BME280;63200;48.810;12.352;2023-08-17T10:39:20;97588.16;;;34.72;43.83
74675;BME280;63200;48.810;12.352;2023-08-17T10:41:47;97582.66;;;34.52;41.89
74675;BME280;63200;48.810;12.352;2023-08-17T10:44:13;97577.88;;;34.78;41.05
74675;BME280;63200;48.810;12.352;2023-08-17T10:46:38;97587.06;;;34.82;41.70
74675;BME280;63200;48.810;12.352;2023-08-17T10:49:29;97572.78;;;34.90;41.55
74675;BME280;63200;48.810;12.352;2023-08-17T10:52:06;97577.38;;;35.26;40.59
74675;BME280;63200;48.810;12.352;2023-08-17T10:54:39;97577.38;;;35.13;42.58
74675;BME280;63200;48.810;12.352;2023-08-17T10:57:24;97573.78;;;34.83;42.32
74675;BME280;63200;48.810;12.352;2023-08-17T11:00:12;97572.91;;;34.69;41.67
74675;BME280;63200;48.810;12.352;2023-08-17T11:02:39;97577.16;;;34.61;43.97
74675;BME280;63200;48.810;12.352;2023-08-17T11:05:05;97574.13;;;34.85;44.04
74675;BME280;63200;48.810;12.352;2023-08-17T11:07:41;97572.25;;;34.78;40.53
74675;BME280;63200;48.810;12.352;2023-08-17T11:12:44;97563.91;;;34.75;43.42
74675;BME280;63200;48.810;12.352;2023-08-17T11:15:09;97565.94;;;35.03;41.83
74675;BME280;63200;48.810;12.352;2023-08-17T11:17:35;97565.94;;;35.16;41.12
74675;BME280;63200;48.810;12.352;2023-08-17T11:20:00;97561.28;;;35.65;40.33
74675;BME280;63200;48.810;12.352;2023-08-17T11:22:25;97556.31;;;35.82;41.04
74675;BME280;63200;48.810;12.352;2023-08-17T11:24:51;97508.66;;;35.71;39.94
74675;BME280;63200;48.810;12.352;2023-08-17T11:27:16;97555.75;;;35.74;40.36
74675;BME280;63200;48.810;12.352;2023-08-17T11:29:42;97564.56;;;34.95;39.64
74675;BME280;63200;48.810;12.352;2023-08-17T11:32:08;97557.38;;;34.78;39.62
74675;BME280;63200;48.810;12.352;2023-08-17T11:34:35;97561.31;;;34.80;40.81
74675;BME280;63200;48.810;12.352;2023-08-17T11:37:01;97552.94;;;35.87;39.97
74675;BME280;63200;48.810;12.352;2023-08-17T11:39:26;97546.56;;;36.57;38.87
74675;BME280;63200;48.810;12.352;2023-08-17T11:41:51;97548.63;;;37.00;37.61
74675;BME280;63200;48.810;12.352;2023-08-17T11:44:18;97526.91;;;36.97;38.35
74675;BME280;63200;48.810;12.352;2023-08-17T11:46:46;97547.72;;;36.46;36.21
74675;BME280;63200;48.810;12.352;2023-08-17T11:49:12;97552.69;;;36.07;37.87
74675;BME280;63200;48.810;12.352;2023-08-17T11:51:37;97543.31;;;35.97;38.24
74675;BME280;63200;48.810;12.352;2023-08-17T11:54:05;97546.97;;;35.59;37.97
74675;BME280;63200;48.810;12.352;2023-08-17T11:56:33;97535.00;;;35.55;37.83
74675;BME280;63200;48.810;12.352;2023-08-17T11:59:08;97520.16;;;35.25;36.98
74675;BME280;63200;48.810;12.352;2023-08-17T12:01:33;97533.81;;;35.27;37.30
74675;BME280;63200;48.810;12.352;2023-08-17T12:04:00;97524.59;;;35.65;37.13
74675;BME280;63200;48.810;12.352;2023-08-17T12:06:25;97532.38;;;35.74;36.60
74675;BME280;63200;48.810;12.352;2023-08-17T12:08:51;97531.56;;;35.99;36.78
74675;BME280;63200;48.810;12.352;2023-08-17T12:11:17;97528.06;;;35.82;37.30
74675;BME280;63200;48.810;12.352;2023-08-17T12:13:43;97500.50;;;35.22;37.92
74675;BME280;63200;48.810;12.352;2023-08-17T12:16:14;97533.81;;;35.78;37.95
74675;BME280;63200;48.810;12.352;2023-08-17T12:18:44;97521.69;;;36.16;37.08
74675;BME280;63200;48.810;12.352;2023-08-17T12:21:09;97525.13;;;35.98;36.85
74675;BME280;63200;48.810;12.352;2023-08-17T12:23:34;97511.59;;;35.67;36.51
74675;BME280;63200;48.810;12.352;2023-08-17T12:26:00;97517.47;;;35.34;36.49
74675;BME280;63200;48.810;12.352;2023-08-17T12:28:25;97512.63;;;35.48;37.20
74675;BME280;63200;48.810;12.352;2023-08-17T12:30:58;97507.19;;;35.53;36.90
74675;BME280;63200;48.810;12.352;2023-08-17T12:33:24;97501.44;;;35.70;37.49
74675;BME280;63200;48.810;12.352;2023-08-17T12:35:49;97500.75;;;36.27;35.77
74675;BME280;63200;48.810;12.352;2023-08-17T12:38:14;97498.59;;;36.31;37.68
74675;BME280;63200;48.810;12.352;2023-08-17T12:40:40;97487.84;;;36.26;37.56
74675;BME280;63200;48.810;12.352;2023-08-17T12:43:06;97464.13;;;36.23;36.31
74675;BME280;63200;48.810;12.352;2023-08-17T12:45:31;97477.47;;;36.23;35.74
74675;BME280;63200;48.810;12.352;2023-08-17T12:47:56;97474.59;;;36.00;36.54